Weather at Belleharbour Heliport

Public forecast

Using degrees Fahrenheit for public forecast. Weather courtesy of forecast.io.

Closest aviation weather report (METAR) to Belleharbour Heliport

Report is more than 6 hours old.

Closest report is Hampton Roads Executive Airport, 5.0 nm (9.2 km) S. Retrieved 2020/10/12 00:56 UTC (2 months ago):

KPVG 120056Z AUTO 10006KT 5SM -RA BR OVC007 19/19 A3000 RMK AO2 SLP159 T01890189 PNO

Closest aviation forecast (TAF) to Belleharbour Heliport

Forecast is more than 12 hours old.

Closest forecast is Norfolk Naval Station (Chambers Field), 8.9 nm (16.5 km) ENE. Retrieved 2014/12/02 15:51 UTC (6 years ago):

TAF TAF KNGU 021500Z 0215/0315 02012KT 8000 BR OVC008 QNH3033INS TEMPO 0215/0221 2400 -DZ BR OVC004 FM022300 35007KT 8000 BR BKN009 OVC020 QNH3037INS FM030700 24005KT 9000 BR SCT008 SCT020 BKN050 QNH3030INS FM031200 22006KT 9000 BR SCT008 BKN020 OVC050 QNH3028INS TX10/0215Z TN07/0303Z FN20000